Time;durP1;ratioP1;P1;durP2;ratioP2;P2;SDS_P1;SDS_P2;PMS_P1;PMS_P2;Temp;Humidity;BMP_temperature;BMP_pressure;BME280_temperature;BME280_humidity;BME280_pressure;Samples;Min_cycle;Max_cycle;Signal;HPM_P1;HPM_P2
2021/08/07 00:00:59;;;;;;;6.40;2.53;;;14.70;99.90;;;;;;4968515;28;20531;-56
2021/08/07 00:03:45;;;;;;;2.67;1.77;;;14.70;99.90;;;;;;4965428;28;20603;-55
2021/08/07 00:06:23;;;;;;;4.00;1.77;;;14.70;99.90;;;;;;4965750;28;20173;-55
2021/08/07 00:09:12;;;;;;;2.20;2.00;;;14.70;99.90;;;;;;4963427;28;20476;-55
2021/08/07 00:11:50;;;;;;;6.47;2.20;;;14.70;99.90;;;;;;4964337;28;20448;-58
2021/08/07 00:14:15;;;;;;;4.13;2.20;;;14.60;99.90;;;;;;4962587;28;20504;-58
2021/08/07 00:16:41;;;;;;;3.03;2.27;;;14.60;99.90;;;;;;4964629;28;20519;-56
2021/08/07 00:19:12;;;;;;;6.40;2.20;;;14.60;99.90;;;;;;4963575;28;20344;-58
2021/08/07 00:21:37;;;;;;;2.50;2.10;;;14.60;99.90;;;;;;4962998;28;20190;-56
2021/08/07 00:24:12;;;;;;;2.70;2.07;;;14.60;99.90;;;;;;4961413;28;20480;-58
2021/08/07 00:26:46;;;;;;;2.20;2.00;;;14.60;99.90;;;;;;4963032;28;20200;-55
2021/08/07 00:32:12;;;;;;;2.70;2.27;;;14.60;99.90;;;;;;4958323;28;20437;-58
2021/08/07 00:34:40;;;;;;;8.23;2.60;;;14.60;99.90;;;;;;4963249;28;20827;-57
2021/08/07 00:37:16;;;;;;;3.60;1.90;;;14.70;99.90;;;;;;4963280;28;20456;-60
2021/08/07 00:39:50;;;;;;;4.60;2.63;;;14.60;99.90;;;;;;4965171;28;21244;-56
2021/08/07 00:42:23;;;;;;;4.10;2.63;;;14.60;99.90;;;;;;4963666;28;20460;-57
2021/08/07 00:44:48;;;;;;;3.17;2.40;;;14.60;99.90;;;;;;4963276;28;20940;-57
2021/08/07 00:47:14;;;;;;;5.17;1.80;;;14.60;99.90;;;;;;4962875;28;20437;-56
2021/08/07 00:49:53;;;;;;;2.67;2.47;;;14.60;99.90;;;;;;4963502;28;20206;-55
2021/08/07 00:52:19;;;;;;;3.87;1.97;;;14.60;99.90;;;;;;4964555;28;20185;-57
2021/08/07 00:54:47;;;;;;;2.20;1.77;;;14.60;99.90;;;;;;4962754;28;20465;-58
2021/08/07 00:57:28;;;;;;;4.27;2.13;;;14.60;99.90;;;;;;4960750;28;21262;-59
2021/08/07 00:59:56;;;;;;;3.30;2.37;;;14.50;99.90;;;;;;4961836;28;20865;-57
2021/08/07 01:02:31;;;;;;;3.73;1.87;;;14.60;99.90;;;;;;4964062;28;20468;-59
2021/08/07 01:05:10;;;;;;;2.20;2.00;;;14.50;99.90;;;;;;4963834;28;20467;-56
2021/08/07 01:07:53;;;;;;;2.33;2.10;;;14.50;99.90;;;;;;4961300;28;20940;-59
2021/08/07 01:10:34;;;;;;;7.27;1.77;;;14.50;99.90;;;;;;4962158;28;20451;-55
2021/08/07 01:13:09;;;;;;;3.77;2.30;;;14.60;99.90;;;;;;4962726;28;20460;-54
2021/08/07 01:15:46;;;;;;;9.03;2.10;;;14.50;99.90;;;;;;4964361;28;20442;-55
2021/08/07 01:18:15;;;;;;;5.20;1.93;;;14.50;99.90;;;;;;4960687;28;20535;-56
2021/08/07 01:20:49;;;;;;;4.43;2.33;;;14.50;99.90;;;;;;4963066;28;20528;-58
2021/08/07 01:23:20;;;;;;;4.93;2.30;;;14.50;99.90;;;;;;4967174;28;20440;-59
2021/08/07 01:26:01;;;;;;;4.27;1.90;;;14.40;99.90;;;;;;4982297;28;20472;-56
2021/08/07 01:28:37;;;;;;;5.60;2.30;;;14.40;99.90;;;;;;4961547;28;20839;-60
2021/08/07 01:31:23;;;;;;;10.80;2.43;;;14.30;99.90;;;;;;4960794;28;20428;-57
2021/08/07 01:33:58;;;;;;;2.57;2.00;;;14.30;99.90;;;;;;4957031;28;20471;-57
2021/08/07 01:36:31;;;;;;;4.50;1.97;;;14.30;99.90;;;;;;4960571;28;20432;-57
2021/08/07 01:39:16;;;;;;;6.23;2.17;;;14.30;99.90;;;;;;4961692;28;20551;-54
2021/08/07 01:41:45;;;;;;;3.80;2.13;;;14.20;99.90;;;;;;4962541;28;20418;-56
2021/08/07 01:44:11;;;;;;;4.80;2.00;;;14.20;99.90;;;;;;4962013;28;20433;-56
2021/08/07 01:46:59;;;;;;;2.33;2.13;;;14.10;99.90;;;;;;4961225;28;21234;-57
2021/08/07 01:49:48;;;;;;;5.83;2.63;;;14.10;99.90;;;;;;4962162;28;20290;-56
2021/08/07 01:52:29;;;;;;;5.60;2.00;;;14.10;99.90;;;;;;4961857;28;20488;-57
2021/08/07 01:55:03;;;;;;;7.07;2.00;;;14.00;99.90;;;;;;4962175;28;20483;-56
2021/08/07 01:57:47;;;;;;;5.10;2.20;;;14.00;99.90;;;;;;4961059;28;20440;-55
2021/08/07 02:00:14;;;;;;;10.47;2.10;;;14.00;99.90;;;;;;4967068;28;20963;-54
2021/08/07 02:02:41;;;;;;;6.80;2.30;;;14.00;99.90;;;;;;4961642;28;20421;-56
2021/08/07 02:05:18;;;;;;;4.10;2.20;;;14.00;99.90;;;;;;4964148;28;20440;-54
2021/08/07 02:07:51;;;;;;;6.33;2.37;;;14.00;99.90;;;;;;4963185;28;20479;-55
2021/08/07 02:10:20;;;;;;;5.10;2.50;;;14.00;99.90;;;;;;4961955;28;20453;-56
2021/08/07 02:12:47;;;;;;;4.37;2.20;;;14.00;99.90;;;;;;4964028;28;20502;-56
2021/08/07 02:15:22;;;;;;;3.17;1.93;;;14.00;99.90;;;;;;4961869;28;20437;-56
2021/08/07 02:17:49;;;;;;;9.27;1.93;;;14.00;99.90;;;;;;4960542;28;20767;-55
2021/08/07 02:20:19;;;;;;;6.37;2.00;;;14.00;99.90;;;;;;4966838;28;20796;-55
2021/08/07 02:22:46;;;;;;;2.57;1.90;;;14.00;99.90;;;;;;4967309;28;20433;-54
2021/08/07 02:25:21;;;;;;;4.10;2.47;;;14.00;99.90;;;;;;4968141;28;20437;-57
2021/08/07 02:27:54;;;;;;;8.00;2.30;;;14.00;99.90;;;;;;4969465;28;20468;-57
2021/08/07 02:30:23;;;;;;;6.20;1.80;;;13.90;99.90;;;;;;4967801;28;21019;-55
2021/08/07 02:33:13;;;;;;;6.33;2.20;;;13.90;99.90;;;;;;4966708;28;20432;-56
2021/08/07 02:35:49;;;;;;;10.50;2.40;;;13.90;99.90;;;;;;4969644;28;20461;-55
2021/08/07 02:38:21;;;;;;;4.80;1.90;;;13.90;99.90;;;;;;4966699;28;20441;-56
2021/08/07 02:40:56;;;;;;;3.17;2.20;;;13.90;99.90;;;;;;4966912;28;20429;-57
2021/08/07 02:43:23;;;;;;;4.87;2.10;;;13.90;99.90;;;;;;4968216;28;20425;-57
2021/08/07 02:45:49;;;;;;;1.93;1.83;;;13.90;99.90;;;;;;4967249;28;20941;-55
2021/08/07 02:48:19;;;;;;;4.23;2.37;;;13.90;99.90;;;;;;4965235;28;21120;-56
2021/08/07 02:50:45;;;;;;;3.97;2.17;;;13.90;99.90;;;;;;4963926;28;20489;-59
2021/08/07 02:53:18;;;;;;;5.83;2.27;;;14.00;99.90;;;;;;4964661;28;20504;-56
2021/08/07 02:55:44;;;;;;;4.03;2.00;;;13.90;99.90;;;;;;4964654;28;20429;-55
2021/08/07 02:58:25;;;;;;;5.77;1.90;;;13.90;99.90;;;;;;4964411;28;20449;-58
2021/08/07 03:00:57;;;;;;;2.03;1.93;;;13.90;99.90;;;;;;4970249;28;20417;-58
2021/08/07 03:03:23;;;;;;;2.20;1.90;;;13.90;99.90;;;;;;4963181;28;20437;-58
2021/08/07 03:05:48;;;;;;;5.47;2.67;;;13.90;99.90;;;;;;4963775;28;20464;-57
2021/08/07 03:08:40;;;;;;;3.43;2.10;;;13.80;99.90;;;;;;4963951;28;20457;-56
2021/08/07 03:11:08;;;;;;;3.50;2.27;;;13.80;99.90;;;;;;4962828;28;20749;-55
2021/08/07 03:13:37;;;;;;;4.53;2.20;;;13.80;99.90;;;;;;4959943;28;20540;-56
2021/08/07 03:16:07;;;;;;;2.30;1.77;;;13.90;99.90;;;;;;4964058;28;20457;-57
2021/08/07 03:18:41;;;;;;;2.17;1.80;;;13.80;99.90;;;;;;4963676;28;20447;-54
2021/08/07 03:21:21;;;;;;;2.60;2.10;;;13.80;99.90;;;;;;4963614;28;20523;-57
2021/08/07 03:24:08;;;;;;;2.40;1.90;;;13.80;99.90;;;;;;4962054;28;20432;-58
2021/08/07 03:26:42;;;;;;;2.43;2.03;;;13.80;99.90;;;;;;4962811;28;20470;-55
2021/08/07 03:29:08;;;;;;;3.40;1.97;;;13.80;99.90;;;;;;4962124;28;20535;-56
2021/08/07 03:31:43;;;;;;;9.43;2.03;;;13.80;99.90;;;;;;4962765;28;20761;-57
2021/08/07 03:34:14;;;;;;;4.03;1.93;;;13.90;99.90;;;;;;4960564;28;20201;-57
2021/08/07 03:36:48;;;;;;;3.87;2.20;;;13.90;99.90;;;;;;4960339;28;20429;-58
2021/08/07 03:39:14;;;;;;;4.47;1.87;;;13.90;99.90;;;;;;4959939;28;20453;-55
2021/08/07 03:41:40;;;;;;;4.70;2.20;;;13.90;99.90;;;;;;4962967;28;20432;-59
2021/08/07 03:44:05;;;;;;;6.93;2.20;;;13.80;99.90;;;;;;4964946;28;20185;-55
2021/08/07 03:46:31;;;;;;;5.03;2.63;;;13.90;99.90;;;;;;4960333;28;20201;-56
2021/08/07 03:48:56;;;;;;;7.80;2.40;;;13.90;99.90;;;;;;4961962;28;20197;-56
2021/08/07 03:51:22;;;;;;;7.70;2.20;;;13.90;99.90;;;;;;4965183;28;20178;-57
2021/08/07 03:53:48;;;;;;;7.47;2.00;;;13.90;99.90;;;;;;4964824;28;20210;-60
2021/08/07 03:56:13;;;;;;;3.30;2.10;;;13.80;99.90;;;;;;4963841;28;20174;-55
2021/08/07 03:58:39;;;;;;;6.17;2.40;;;13.80;99.90;;;;;;4963400;28;21144;-56
2021/08/07 04:01:05;;;;;;;3.90;1.80;;;13.80;99.90;;;;;;4960414;28;20185;-57
2021/08/07 04:03:30;;;;;;;2.30;1.70;;;13.80;99.90;;;;;;4960473;28;20234;-55
2021/08/07 04:05:56;;;;;;;5.10;2.60;;;13.70;99.90;;;;;;4962105;28;20181;-60
2021/08/07 04:08:21;;;;;;;5.10;2.40;;;13.70;99.90;;;;;;4964869;28;20205;-54
2021/08/07 04:10:47;;;;;;;3.53;1.97;;;13.70;99.90;;;;;;4961631;28;20848;-57
2021/08/07 04:13:13;;;;;;;6.33;2.13;;;13.70;99.90;;;;;;4967396;28;20198;-57
2021/08/07 04:15:38;;;;;;;7.10;2.73;;;13.70;99.90;;;;;;4962821;28;20793;-55
2021/08/07 04:18:04;;;;;;;4.43;2.10;;;13.70;99.90;;;;;;4962469;28;20225;-56
2021/08/07 04:20:29;;;;;;;3.63;2.03;;;13.70;99.90;;;;;;4960630;28;20213;-55
2021/08/07 04:22:55;;;;;;;5.13;1.80;;;13.70;99.90;;;;;;4964039;28;20173;-56
2021/08/07 04:25:21;;;;;;;2.67;2.40;;;13.70;99.90;;;;;;4963367;28;20176;-58
2021/08/07 04:27:46;;;;;;;2.80;2.40;;;13.70;99.90;;;;;;4963552;28;20237;-56
2021/08/07 04:30:12;;;;;;;10.53;2.50;;;13.80;99.90;;;;;;4965333;28;20245;-56
2021/08/07 04:32:38;;;;;;;4.00;2.10;;;13.80;99.90;;;;;;4964916;28;20182;-56
2021/08/07 04:35:06;;;;;;;5.70;2.60;;;13.80;99.90;;;;;;4964301;28;20549;-55
2021/08/07 04:37:31;;;;;;;5.90;2.13;;;13.80;99.90;;;;;;4963363;28;20261;-58
2021/08/07 04:39:57;;;;;;;5.20;2.30;;;13.80;99.90;;;;;;4963398;28;20563;-57
2021/08/07 04:42:22;;;;;;;5.97;2.40;;;13.80;99.90;;;;;;4960952;28;21875;-56
2021/08/07 04:44:48;;;;;;;4.53;2.13;;;13.80;99.90;;;;;;4961119;28;20196;-57
2021/08/07 04:47:14;;;;;;;3.90;2.60;;;13.80;99.90;;;;;;4963564;28;20181;-55
2021/08/07 04:49:39;;;;;;;3.40;2.20;;;13.80;99.90;;;;;;4962972;28;20213;-57
2021/08/07 04:52:05;;;;;;;2.77;2.03;;;13.80;99.90;;;;;;4962092;28;20192;-57
2021/08/07 04:54:31;;;;;;;4.37;2.63;;;13.80;99.90;;;;;;4963121;28;20273;-56
2021/08/07 04:56:57;;;;;;;7.40;2.20;;;13.90;99.90;;;;;;4963347;28;20174;-58
2021/08/07 04:59:23;;;;;;;3.63;2.20;;;13.80;99.90;;;;;;4956849;28;20453;-57
2021/08/07 05:01:48;;;;;;;6.07;2.23;;;13.90;99.90;;;;;;4960913;28;20429;-56
2021/08/07 05:04:14;;;;;;;3.63;1.87;;;13.90;99.90;;;;;;4965114;28;20190;-62
2021/08/07 05:06:40;;;;;;;4.77;2.13;;;13.90;99.90;;;;;;4972735;28;20186;-59
2021/08/07 05:09:06;;;;;;;4.60;2.83;;;14.00;99.90;;;;;;4975749;28;20220;-57
2021/08/07 05:11:32;;;;;;;2.57;2.10;;;14.00;99.90;;;;;;4975745;28;20174;-58
2021/08/07 05:13:58;;;;;;;2.30;2.03;;;14.00;99.90;;;;;;4970693;28;20718;-58
2021/08/07 05:16:23;;;;;;;3.20;1.90;;;14.10;99.90;;;;;;4961572;28;20437;-57
2021/08/07 05:18:49;;;;;;;2.73;1.80;;;14.10;99.90;;;;;;4960166;28;20201;-59
2021/08/07 05:21:14;;;;;;;2.57;2.20;;;14.10;99.90;;;;;;4957398;28;20971;-57
2021/08/07 05:23:40;;;;;;;5.23;2.33;;;14.10;99.90;;;;;;4959988;28;20209;-58
2021/08/07 05:26:06;;;;;;;5.83;2.00;;;14.10;99.90;;;;;;4961124;28;21495;-61
2021/08/07 05:28:31;;;;;;;4.20;2.23;;;14.10;99.90;;;;;;4960156;28;20217;-57
2021/08/07 05:30:57;;;;;;;3.70;2.30;;;14.20;99.90;;;;;;4958657;28;20190;-57
2021/08/07 05:33:23;;;;;;;6.00;2.43;;;14.20;99.90;;;;;;4959196;28;20245;-57
2021/08/07 05:35:48;;;;;;;6.53;2.40;;;14.20;99.90;;;;;;4958773;28;20301;-57
2021/08/07 05:38:17;;;;;;;4.10;2.23;;;14.30;99.90;;;;;;4959770;28;20198;-57
2021/08/07 05:40:43;;;;;;;12.10;2.57;;;14.30;99.90;;;;;;4959489;28;20189;-57
2021/08/07 05:43:08;;;;;;;2.70;2.37;;;14.30;99.90;;;;;;4960735;28;20817;-59
2021/08/07 05:45:34;;;;;;;5.60;2.83;;;14.40;99.90;;;;;;4958719;28;20201;-57
2021/08/07 05:47:59;;;;;;;6.53;2.07;;;14.40;99.90;;;;;;4961353;28;20570;-57
2021/08/07 05:50:25;;;;;;;3.83;2.40;;;14.40;99.90;;;;;;4957067;28;20216;-61
2021/08/07 05:52:51;;;;;;;3.17;2.00;;;14.40;99.90;;;;;;4974766;28;20206;-58
2021/08/07 05:55:16;;;;;;;6.17;2.10;;;14.50;99.90;;;;;;4963087;28;20709;-56
2021/08/07 05:57:42;;;;;;;9.13;2.33;;;14.50;99.90;;;;;;4967497;28;20182;-56
2021/08/07 06:00:08;;;;;;;2.53;2.33;;;14.50;99.90;;;;;;4960885;28;20185;-55
2021/08/07 06:02:35;;;;;;;6.47;3.13;;;14.60;99.90;;;;;;4961874;28;20192;-60
2021/08/07 06:05:00;;;;;;;5.07;2.47;;;14.60;99.90;;;;;;4964050;28;20468;-59
2021/08/07 06:07:26;;;;;;;2.80;2.43;;;14.60;99.90;;;;;;4963643;28;20467;-58
2021/08/07 06:09:51;;;;;;;2.87;2.20;;;14.60;99.90;;;;;;4965117;28;20233;-57
2021/08/07 06:12:17;;;;;;;9.27;2.40;;;14.60;99.90;;;;;;4962067;28;20211;-57
2021/08/07 06:14:43;;;;;;;10.47;2.80;;;14.60;99.90;;;;;;4960019;28;20210;-57
2021/08/07 06:17:08;;;;;;;2.50;2.30;;;14.60;99.90;;;;;;4963984;28;20178;-56
2021/08/07 06:19:35;;;;;;;3.83;2.20;;;14.60;99.90;;;;;;4962623;28;20193;-59
2021/08/07 06:22:01;;;;;;;3.43;1.90;;;14.60;99.90;;;;;;4964738;28;20185;-58
2021/08/07 06:24:27;;;;;;;2.87;1.90;;;14.60;99.90;;;;;;4963738;28;20451;-57
2021/08/07 06:26:52;;;;;;;5.37;2.10;;;14.60;99.90;;;;;;4964109;28;20950;-59
2021/08/07 06:29:18;;;;;;;2.60;2.40;;;14.60;99.90;;;;;;4961687;28;20241;-58
2021/08/07 06:31:44;;;;;;;5.40;2.70;;;14.60;99.90;;;;;;4963769;28;20188;-55
2021/08/07 06:34:09;;;;;;;4.23;2.43;;;14.50;99.90;;;;;;4969958;28;20366;-58
2021/08/07 06:36:35;;;;;;;5.53;2.67;;;14.50;99.90;;;;;;4965359;28;20686;-60
2021/08/07 06:39:01;;;;;;;9.90;3.43;;;14.50;99.90;;;;;;4964270;28;20200;-57
2021/08/07 06:41:27;;;;;;;4.43;3.27;;;14.50;99.90;;;;;;4964170;28;20178;-57
2021/08/07 06:43:52;;;;;;;8.87;4.30;;;14.60;99.90;;;;;;4964841;28;20484;-57
2021/08/07 06:46:18;;;;;;;4.50;3.27;;;14.60;99.90;;;;;;4966469;28;20189;-61
2021/08/07 06:48:44;;;;;;;10.17;2.67;;;14.60;99.90;;;;;;4963400;28;20228;-59
2021/08/07 06:51:09;;;;;;;6.10;2.23;;;14.60;99.90;;;;;;4960448;28;22427;-58
2021/08/07 06:53:35;;;;;;;4.50;2.20;;;14.70;99.90;;;;;;4962126;28;20216;-59
2021/08/07 06:56:01;;;;;;;3.17;2.10;;;14.70;99.90;;;;;;4964632;28;20189;-57
2021/08/07 06:58:26;;;;;;;4.40;2.13;;;14.70;99.90;;;;;;4960520;28;20281;-56
2021/08/07 07:00:52;;;;;;;5.63;2.20;;;14.70;99.90;;;;;;4962280;28;20178;-59
2021/08/07 07:03:17;;;;;;;2.40;2.10;;;14.70;99.90;;;;;;4964539;28;20194;-59
2021/08/07 07:05:43;;;;;;;6.10;2.60;;;14.70;99.90;;;;;;4962075;28;20181;-56
2021/08/07 07:08:09;;;;;;;4.73;2.33;;;14.70;99.90;;;;;;4961535;28;20206;-58
2021/08/07 07:10:35;;;;;;;6.40;2.57;;;14.70;99.90;;;;;;4960394;28;20190;-57
2021/08/07 07:13:01;;;;;;;7.17;2.80;;;14.70;99.90;;;;;;4963883;28;20186;-59
2021/08/07 07:15:27;;;;;;;3.93;2.50;;;14.70;99.90;;;;;;4963029;28;20196;-58
2021/08/07 07:17:53;;;;;;;7.23;2.63;;;14.70;99.90;;;;;;4962338;28;20453;-58
2021/08/07 07:20:20;;;;;;;4.50;2.40;;;14.70;99.90;;;;;;4962301;28;20433;-59
2021/08/07 07:22:46;;;;;;;3.23;2.40;;;14.70;99.90;;;;;;4961825;28;20182;-56
2021/08/07 07:25:13;;;;;;;4.47;2.50;;;14.70;99.90;;;;;;4978506;28;20467;-56
2021/08/07 07:27:39;;;;;;;4.77;2.73;;;14.70;99.90;;;;;;4961149;28;20190;-58
2021/08/07 07:30:06;;;;;;;2.73;2.53;;;14.70;99.90;;;;;;4961621;28;20437;-56
2021/08/07 07:32:32;;;;;;;3.73;2.90;;;14.60;99.90;;;;;;4959568;28;20686;-55
2021/08/07 07:34:58;;;;;;;3.87;2.93;;;14.60;99.90;;;;;;4957847;28;20487;-55
2021/08/07 07:37:25;;;;;;;4.13;2.93;;;14.60;99.90;;;;;;4959235;28;20175;-56
2021/08/07 07:39:51;;;;;;;5.73;2.70;;;14.60;99.90;;;;;;4963172;28;22898;-57
2021/08/07 07:42:16;;;;;;;5.77;2.97;;;14.60;99.90;;;;;;4963682;28;20449;-56
2021/08/07 07:44:42;;;;;;;3.60;2.70;;;14.60;99.90;;;;;;4963043;28;20189;-57
2021/08/07 07:47:07;;;;;;;4.23;2.07;;;14.60;99.90;;;;;;4960586;28;20696;-57
2021/08/07 07:49:33;;;;;;;3.90;2.63;;;14.60;99.90;;;;;;4964025;28;20209;-55
2021/08/07 07:51:59;;;;;;;3.10;2.70;;;14.60;99.90;;;;;;4960616;28;20537;-56
2021/08/07 07:54:24;;;;;;;5.07;2.87;;;14.70;99.90;;;;;;4964062;28;20701;-58
2021/08/07 07:56:50;;;;;;;3.10;2.80;;;14.70;99.90;;;;;;4961724;28;20313;-57
2021/08/07 07:59:16;;;;;;;5.03;2.77;;;14.70;99.90;;;;;;4959934;28;20201;-56
2021/08/07 08:01:46;;;;;;;5.73;2.47;;;14.70;99.90;;;;;;4957374;28;20192;-55
2021/08/07 08:04:11;;;;;;;5.33;2.60;;;14.70;99.90;;;;;;4962711;28;20204;-56
2021/08/07 08:06:37;;;;;;;8.93;5.00;;;14.80;99.90;;;;;;4959833;28;20468;-56
2021/08/07 08:09:05;;;;;;;6.97;3.03;;;14.80;99.90;;;;;;4961463;28;20213;-58
2021/08/07 08:11:31;;;;;;;6.63;2.90;;;14.90;99.90;;;;;;4965144;28;20314;-56
2021/08/07 08:13:56;;;;;;;5.07;2.60;;;15.10;99.90;;;;;;4962772;28;20555;-59
2021/08/07 08:16:22;;;;;;;8.47;3.27;;;15.20;99.90;;;;;;4961800;28;20659;-59
2021/08/07 08:18:48;;;;;;;2.70;2.30;;;15.30;99.90;;;;;;4961926;28;20606;-58
2021/08/07 08:21:14;;;;;;;4.80;2.60;;;15.50;99.90;;;;;;4963909;28;20456;-57
2021/08/07 08:23:39;;;;;;;4.33;2.90;;;15.50;99.90;;;;;;4962198;28;20201;-60
2021/08/07 08:26:06;;;;;;;3.87;2.50;;;15.60;99.90;;;;;;4963993;28;20546;-62
2021/08/07 08:28:32;;;;;;;9.80;3.07;;;15.60;99.90;;;;;;4964340;28;20206;-59
2021/08/07 08:30:57;;;;;;;6.63;3.37;;;15.70;99.90;;;;;;4964598;28;20480;-57
2021/08/07 08:33:23;;;;;;;4.07;2.40;;;15.80;99.90;;;;;;4962280;28;20670;-56
2021/08/07 08:35:49;;;;;;;6.70;2.57;;;15.80;99.90;;;;;;4963256;28;20834;-56
2021/08/07 08:38:14;;;;;;;3.50;2.57;;;15.80;99.90;;;;;;4962364;28;20825;-56
2021/08/07 08:40:40;;;;;;;4.93;2.43;;;15.90;99.90;;;;;;4963200;28;20253;-55
2021/08/07 08:43:06;;;;;;;5.40;2.60;;;15.90;99.90;;;;;;4962698;28;20639;-55
2021/08/07 08:45:32;;;;;;;3.77;2.80;;;15.90;99.90;;;;;;4960180;28;20429;-55
2021/08/07 08:48:00;;;;;;;2.63;2.30;;;15.90;99.90;;;;;;4958361;28;20210;-56
2021/08/07 08:50:26;;;;;;;5.13;3.03;;;15.90;99.90;;;;;;4966949;28;20575;-56
2021/08/07 08:52:55;;;;;;;7.67;2.90;;;15.80;99.90;;;;;;4966370;28;20433;-57
2021/08/07 08:55:20;;;;;;;5.63;2.73;;;15.80;99.90;;;;;;4954518;28;20460;-57
2021/08/07 08:57:47;;;;;;;6.37;2.53;;;15.80;99.90;;;;;;4958563;28;20453;-60
2021/08/07 09:00:13;;;;;;;2.53;2.23;;;15.80;99.90;;;;;;4958776;28;20185;-57
2021/08/07 09:02:39;;;;;;;4.83;2.60;;;15.80;99.90;;;;;;4957493;28;20465;-57
2021/08/07 09:05:07;;;;;;;8.57;2.70;;;15.90;99.90;;;;;;4963081;28;20450;-58
2021/08/07 09:07:33;;;;;;;5.77;3.03;;;15.90;99.90;;;;;;4959304;28;20516;-58
2021/08/07 09:09:58;;;;;;;10.03;2.90;;;16.00;99.90;;;;;;4908877;28;1472379;-56
2021/08/07 09:13:00;;;;;;;3.13;2.70;;;16.20;99.90;;;;;;4957577;28;21103;-58
2021/08/07 09:15:34;;;;;;;3.67;2.80;;;16.40;99.90;;;;;;4939834;28;20182;-60
2021/08/07 09:18:20;;;;;;;6.57;3.80;;;16.50;99.90;;;;;;4957109;28;20452;-57
2021/08/07 09:20:52;;;;;;;4.43;2.53;;;16.70;99.90;;;;;;4957839;28;20437;-59
2021/08/07 09:23:35;;;;;;;9.23;3.10;;;16.80;99.90;;;;;;4967889;28;20417;-55
2021/08/07 09:26:21;;;;;;;8.43;4.93;;;16.90;99.90;;;;;;4970931;28;20460;-55
2021/08/07 09:28:49;;;;;;;6.60;4.30;;;17.00;99.90;;;;;;4967432;28;20457;-56
2021/08/07 09:31:15;;;;;;;5.73;3.50;;;17.00;99.90;;;;;;4962110;28;20438;-56
2021/08/07 09:33:41;;;;;;;8.27;3.80;;;17.10;99.90;;;;;;4970806;28;20476;-56
2021/08/07 09:36:07;;;;;;;11.17;4.20;;;17.10;99.90;;;;;;4969922;28;20233;-56
2021/08/07 09:38:41;;;;;;;7.47;2.90;;;17.10;99.90;;;;;;4968858;28;20190;-57
2021/08/07 09:41:07;;;;;;;3.30;2.57;;;17.20;99.90;;;;;;4963758;28;20177;-57
2021/08/07 09:43:41;;;;;;;5.80;2.67;;;17.20;99.90;;;;;;4970851;28;20429;-56
2021/08/07 09:46:16;;;;;;;4.50;3.07;;;17.30;99.90;;;;;;4970937;28;20184;-55
2021/08/07 09:48:47;;;;;;;5.27;2.53;;;17.30;99.90;;;;;;4967350;28;20480;-56
2021/08/07 09:51:26;;;;;;;8.07;3.30;;;17.40;99.90;;;;;;4969032;28;20437;-57
2021/08/07 09:54:14;;;;;;;3.40;3.07;;;17.40;99.90;;;;;;4967685;28;20456;-57
2021/08/07 09:56:51;;;;;;;6.43;2.80;;;17.50;99.90;;;;;;4962607;28;20426;-57
2021/08/07 09:59:18;;;;;;;4.77;3.07;;;17.50;99.90;;;;;;4970229;28;20872;-59
2021/08/07 10:01:46;;;;;;;4.67;3.10;;;17.50;99.90;;;;;;4962906;28;20810;-57
2021/08/07 10:04:14;;;;;;;3.97;2.43;;;17.60;99.90;;;;;;4969647;28;20461;-57
2021/08/07 10:06:41;;;;;;;3.30;2.50;;;17.50;99.90;;;;;;4963383;28;20544;-56
2021/08/07 10:09:07;;;;;;;4.57;3.00;;;17.50;99.90;;;;;;4968214;28;20464;-55
2021/08/07 10:11:34;;;;;;;8.03;2.97;;;17.50;99.90;;;;;;4970240;28;20421;-58
2021/08/07 10:14:00;;;;;;;6.90;3.03;;;17.40;99.90;;;;;;4966661;28;20457;-57
2021/08/07 10:16:27;;;;;;;9.90;2.70;;;17.40;99.90;;;;;;4966140;28;20484;-57
2021/08/07 10:18:53;;;;;;;2.60;2.40;;;17.30;99.90;;;;;;4969164;28;20457;-56
2021/08/07 10:21:20;;;;;;;6.63;3.00;;;17.30;99.90;;;;;;4962919;28;20799;-54
2021/08/07 10:23:48;;;;;;;3.40;3.00;;;17.30;99.90;;;;;;4967198;28;21577;-57
2021/08/07 10:26:19;;;;;;;5.23;3.10;;;17.30;99.90;;;;;;4964980;28;20523;-56
2021/08/07 10:29:04;;;;;;;4.47;3.20;;;17.30;99.90;;;;;;4968456;28;20444;-56
2021/08/07 10:31:33;;;;;;;8.67;4.90;;;17.20;99.90;;;;;;4968999;28;21031;-56
2021/08/07 10:34:04;;;;;;;5.80;3.20;;;17.20;99.90;;;;;;4956201;28;20568;-57
2021/08/07 10:36:30;;;;;;;4.50;3.30;;;17.10;99.90;;;;;;4964977;28;20958;-57
2021/08/07 10:38:56;;;;;;;4.73;3.30;;;17.10;99.90;;;;;;4967612;28;20507;-56
2021/08/07 10:41:27;;;;;;;8.83;3.50;;;17.10;99.90;;;;;;4966489;28;20527;-54
2021/08/07 10:43:54;;;;;;;4.00;3.60;;;17.10;99.90;;;;;;4972530;28;21538;-57
2021/08/07 10:46:20;;;;;;;5.27;3.47;;;17.10;99.90;;;;;;4972004;28;20803;-54
2021/08/07 10:48:48;;;;;;;5.10;3.43;;;17.10;99.90;;;;;;4971693;28;20437;-56
2021/08/07 10:51:22;;;;;;;4.80;3.23;;;17.10;99.90;;;;;;4968231;28;20444;-56
2021/08/07 10:53:49;;;;;;;4.00;3.40;;;17.10;99.90;;;;;;4973538;28;20846;-56
2021/08/07 10:56:26;;;;;;;14.80;3.50;;;17.10;99.90;;;;;;4971803;28;20432;-55
2021/08/07 10:58:53;;;;;;;10.87;3.43;;;17.10;99.90;;;;;;4968439;28;20458;-56
2021/08/07 11:04:01;;;;;;;7.10;3.20;;;17.10;99.90;;;;;;4973650;28;21163;-56
2021/08/07 11:06:46;;;;;;;5.17;2.50;;;17.10;99.90;;;;;;4970303;28;20957;-58
2021/08/07 11:09:35;;;;;;;4.40;3.07;;;17.10;99.90;;;;;;4966937;28;20500;-57
2021/08/07 11:12:21;;;;;;;4.33;2.83;;;17.10;99.90;;;;;;4958235;28;20476;-55
2021/08/07 11:15:07;;;;;;;4.17;2.37;;;17.10;99.90;;;;;;4973302;28;21012;-57
2021/08/07 11:17:35;;;;;;;3.10;2.50;;;17.10;99.90;;;;;;4957237;28;20541;-58
2021/08/07 11:20:07;;;;;;;3.60;2.50;;;17.00;99.90;;;;;;4973231;28;20425;-56
2021/08/07 11:22:36;;;;;;;3.10;2.80;;;17.00;99.90;;;;;;4967670;28;20455;-55
2021/08/07 11:25:17;;;;;;;3.83;2.80;;;17.00;99.90;;;;;;4966449;28;20602;-58
2021/08/07 11:28:03;;;;;;;7.03;2.53;;;17.10;99.90;;;;;;4971071;28;20842;-57
2021/08/07 11:30:36;;;;;;;3.03;2.17;;;17.10;99.90;;;;;;4975524;28;20445;-60
2021/08/07 11:33:02;;;;;;;3.60;2.20;;;17.10;99.90;;;;;;4993637;28;20438;-59
2021/08/07 11:35:34;;;;;;;5.03;2.70;;;17.20;99.90;;;;;;4978931;28;20433;-56
2021/08/07 11:38:06;;;;;;;3.43;2.80;;;17.20;99.90;;;;;;4981344;28;20269;-56
2021/08/07 11:40:57;;;;;;;6.47;2.80;;;17.20;99.90;;;;;;4975376;28;20462;-55
2021/08/07 11:43:28;;;;;;;2.57;2.37;;;17.30;99.90;;;;;;4965929;28;20449;-59
2021/08/07 11:46:00;;;;;;;5.00;2.33;;;17.30;99.90;;;;;;4966353;28;20437;-57
2021/08/07 11:48:37;;;;;;;4.53;2.20;;;17.20;99.90;;;;;;4970334;28;20456;-57
2021/08/07 11:51:11;;;;;;;2.43;1.70;;;17.20;99.90;;;;;;4964903;28;20440;-59
2021/08/07 11:53:39;;;;;;;3.83;2.53;;;17.20;99.90;;;;;;4966755;28;20508;-58
2021/08/07 11:56:13;;;;;;;4.30;2.30;;;17.20;99.90;;;;;;4967727;28;20444;-58
2021/08/07 11:58:52;;;;;;;8.00;2.37;;;17.20;99.90;;;;;;4966914;28;21418;-56
2021/08/07 12:01:20;;;;;;;2.70;1.87;;;17.10;99.90;;;;;;4965650;28;20436;-59
2021/08/07 12:03:51;;;;;;;2.67;2.10;;;17.00;99.90;;;;;;4960331;28;20464;-58
2021/08/07 12:06:20;;;;;;;5.43;2.47;;;17.00;99.90;;;;;;4974657;28;20930;-57
2021/08/07 12:08:47;;;;;;;2.10;1.90;;;16.90;99.90;;;;;;4954491;28;20469;-58
2021/08/07 12:11:15;;;;;;;3.20;2.53;;;16.90;99.90;;;;;;4958752;28;20437;-57
2021/08/07 12:13:48;;;;;;;5.80;2.50;;;16.90;99.90;;;;;;4961011;28;21132;-59
2021/08/07 12:16:16;;;;;;;4.70;2.40;;;16.90;99.90;;;;;;4959564;28;20995;-59
2021/08/07 12:18:52;;;;;;;7.03;2.80;;;16.90;99.90;;;;;;4959767;28;20981;-61
2021/08/07 12:21:24;;;;;;;3.60;2.37;;;16.80;99.90;;;;;;4962842;28;20445;-59
2021/08/07 12:23:55;;;;;;;3.73;2.30;;;16.80;99.90;;;;;;4960111;28;20989;-58
2021/08/07 12:26:23;;;;;;;4.60;2.10;;;16.70;99.90;;;;;;4954814;28;21087;-60
2021/08/07 12:29:07;;;;;;;3.80;2.23;;;16.70;99.90;;;;;;4950563;28;22600;-59
2021/08/07 12:31:56;;;;;;;2.90;2.10;;;16.60;99.90;;;;;;4954990;28;20607;-61
2021/08/07 12:34:29;;;;;;;4.37;1.97;;;16.60;99.90;;;;;;4959001;28;20453;-59
2021/08/07 12:37:00;;;;;;;3.83;2.07;;;16.60;99.90;;;;;;4962647;28;20433;-58
2021/08/07 12:39:31;;;;;;;2.80;2.00;;;16.50;99.90;;;;;;4951563;28;20449;-60
2021/08/07 12:41:58;;;;;;;3.77;2.00;;;16.50;99.90;;;;;;4957644;28;20425;-60
2021/08/07 12:44:28;;;;;;;4.40;2.87;;;16.50;99.90;;;;;;4957999;28;20472;-58
2021/08/07 12:46:56;;;;;;;2.50;2.20;;;16.40;99.90;;;;;;4950300;28;20437;-60
2021/08/07 12:49:39;;;;;;;4.50;3.20;;;16.40;99.90;;;;;;4945937;28;20457;-62
2021/08/07 12:52:22;;;;;;;3.90;2.63;;;16.40;99.90;;;;;;4957178;28;21090;-58
2021/08/07 12:55:08;;;;;;;2.80;2.33;;;16.30;99.90;;;;;;4959331;28;20464;-57
2021/08/07 12:57:34;;;;;;;4.83;3.00;;;16.30;99.90;;;;;;4951783;28;20515;-58
2021/08/07 13:00:00;;;;;;;5.57;2.60;;;16.30;99.90;;;;;;4947618;28;20465;-58
2021/08/07 13:02:26;;;;;;;3.63;2.57;;;16.20;99.90;;;;;;4950726;28;20473;-59
2021/08/07 13:04:54;;;;;;;3.40;2.57;;;16.20;99.90;;;;;;4950517;28;20182;-59